sensor_id;sensor_type;location;lat;lon;timestamp;P1;durP1;ratioP1;P2;durP2;ratioP2
26034;SDS011;13809;48.632;11.576;2023-08-30T00:02:12;3.70;;;3.43;;
26034;SDS011;13809;48.632;11.576;2023-08-30T00:07:17;4.20;;;3.90;;
26034;SDS011;13809;48.632;11.576;2023-08-30T00:12:20;4.50;;;4.10;;
26034;SDS011;13809;48.632;11.576;2023-08-30T00:17:24;4.40;;;4.10;;
26034;SDS011;13809;48.632;11.576;2023-08-30T00:22:29;4.60;;;4.30;;
26034;SDS011;13809;48.632;11.576;2023-08-30T00:27:32;4.60;;;4.20;;
26034;SDS011;13809;48.632;11.576;2023-08-30T00:32:35;4.97;;;4.67;;
26034;SDS011;13809;48.632;11.576;2023-08-30T00:37:40;5.27;;;4.83;;
26034;SDS011;13809;48.632;11.576;2023-08-30T00:42:43;4.73;;;4.37;;
26034;SDS011;13809;48.632;11.576;2023-08-30T00:47:46;5.50;;;4.40;;
26034;SDS011;13809;48.632;11.576;2023-08-30T00:52:51;4.73;;;4.43;;
26034;SDS011;13809;48.632;11.576;2023-08-30T00:57:54;5.33;;;5.03;;
26034;SDS011;13809;48.632;11.576;2023-08-30T01:02:57;5.30;;;5.00;;
26034;SDS011;13809;48.632;11.576;2023-08-30T01:08:02;5.73;;;5.20;;
26034;SDS011;13809;48.632;11.576;2023-08-30T01:13:08;4.83;;;4.53;;
26034;SDS011;13809;48.632;11.576;2023-08-30T01:18:16;4.80;;;4.50;;
26034;SDS011;13809;48.632;11.576;2023-08-30T01:23:26;5.80;;;5.33;;
26034;SDS011;13809;48.632;11.576;2023-08-30T01:28:40;5.17;;;4.87;;
26034;SDS011;13809;48.632;11.576;2023-08-30T01:33:43;5.70;;;5.30;;
26034;SDS011;13809;48.632;11.576;2023-08-30T01:38:47;6.13;;;5.63;;
26034;SDS011;13809;48.632;11.576;2023-08-30T01:43:52;5.43;;;4.50;;
26034;SDS011;13809;48.632;11.576;2023-08-30T01:48:56;6.20;;;5.70;;
26034;SDS011;13809;48.632;11.576;2023-08-30T01:54:00;5.53;;;5.23;;
26034;SDS011;13809;48.632;11.576;2023-08-30T01:59:06;5.53;;;5.20;;
26034;SDS011;13809;48.632;11.576;2023-08-30T02:04:09;6.10;;;5.70;;
26034;SDS011;13809;48.632;11.576;2023-08-30T02:09:14;6.23;;;5.83;;
26034;SDS011;13809;48.632;11.576;2023-08-30T02:14:22;5.60;;;5.20;;
26034;SDS011;13809;48.632;11.576;2023-08-30T02:19:27;6.13;;;5.73;;
26034;SDS011;13809;48.632;11.576;2023-08-30T02:24:31;6.30;;;5.90;;
26034;SDS011;13809;48.632;11.576;2023-08-30T02:29:35;5.53;;;5.13;;
26034;SDS011;13809;48.632;11.576;2023-08-30T02:34:39;6.97;;;6.47;;
26034;SDS011;13809;48.632;11.576;2023-08-30T02:39:42;7.07;;;6.57;;
26034;SDS011;13809;48.632;11.576;2023-08-30T02:44:46;6.63;;;6.13;;
26034;SDS011;13809;48.632;11.576;2023-08-30T02:49:49;7.40;;;6.80;;
26034;SDS011;13809;48.632;11.576;2023-08-30T02:54:53;7.23;;;6.73;;
26034;SDS011;13809;48.632;11.576;2023-08-30T02:59:57;7.07;;;6.57;;
26034;SDS011;13809;48.632;11.576;2023-08-30T03:05:00;8.03;;;7.33;;
26034;SDS011;13809;48.632;11.576;2023-08-30T03:10:06;7.90;;;7.40;;
26034;SDS011;13809;48.632;11.576;2023-08-30T03:15:11;8.10;;;7.50;;
26034;SDS011;13809;48.632;11.576;2023-08-30T03:20:14;8.57;;;7.97;;
26034;SDS011;13809;48.632;11.576;2023-08-30T03:25:17;8.73;;;8.00;;
26034;SDS011;13809;48.632;11.576;2023-08-30T03:30:22;9.37;;;8.67;;
26034;SDS011;13809;48.632;11.576;2023-08-30T03:35:25;9.20;;;8.60;;
26034;SDS011;13809;48.632;11.576;2023-08-30T03:40:29;9.73;;;9.03;;
26034;SDS011;13809;48.632;11.576;2023-08-30T03:45:35;9.73;;;8.97;;
26034;SDS011;13809;48.632;11.576;2023-08-30T03:50:39;9.27;;;8.67;;
26034;SDS011;13809;48.632;11.576;2023-08-30T03:55:42;9.67;;;8.97;;
26034;SDS011;13809;48.632;11.576;2023-08-30T04:00:46;11.07;;;10.27;;
26034;SDS011;13809;48.632;11.576;2023-08-30T04:05:54;10.63;;;9.83;;
26034;SDS011;13809;48.632;11.576;2023-08-30T04:10:58;10.47;;;9.67;;
26034;SDS011;13809;48.632;11.576;2023-08-30T04:16:03;10.77;;;9.97;;
26034;SDS011;13809;48.632;11.576;2023-08-30T04:21:06;10.23;;;9.53;;
26034;SDS011;13809;48.632;11.576;2023-08-30T04:26:10;11.40;;;10.60;;
26034;SDS011;13809;48.632;11.576;2023-08-30T04:31:14;11.33;;;10.53;;
26034;SDS011;13809;48.632;11.576;2023-08-30T04:36:17;10.63;;;9.83;;
26034;SDS011;13809;48.632;11.576;2023-08-30T04:41:21;11.97;;;11.07;;
26034;SDS011;13809;48.632;11.576;2023-08-30T04:46:25;12.40;;;11.50;;
26034;SDS011;13809;48.632;11.576;2023-08-30T04:51:28;12.47;;;11.57;;
26034;SDS011;13809;48.632;11.576;2023-08-30T04:56:31;11.97;;;11.10;;
26034;SDS011;13809;48.632;11.576;2023-08-30T05:01:38;11.60;;;10.80;;
26034;SDS011;13809;48.632;11.576;2023-08-30T05:06:45;13.13;;;12.03;;
26034;SDS011;13809;48.632;11.576;2023-08-30T05:11:48;12.93;;;11.87;;
26034;SDS011;13809;48.632;11.576;2023-08-30T05:16:53;12.07;;;11.03;;
26034;SDS011;13809;48.632;11.576;2023-08-30T05:21:56;12.17;;;11.23;;
26034;SDS011;13809;48.632;11.576;2023-08-30T05:26:59;12.57;;;11.57;;
26034;SDS011;13809;48.632;11.576;2023-08-30T05:32:04;12.37;;;11.37;;
26034;SDS011;13809;48.632;11.576;2023-08-30T05:37:08;10.00;;;9.30;;
26034;SDS011;13809;48.632;11.576;2023-08-30T05:42:11;11.20;;;10.40;;
26034;SDS011;13809;48.632;11.576;2023-08-30T05:47:16;13.80;;;12.70;;
26034;SDS011;13809;48.632;11.576;2023-08-30T05:52:20;13.00;;;11.90;;
26034;SDS011;13809;48.632;11.576;2023-08-30T05:57:24;12.93;;;12.03;;
26034;SDS011;13809;48.632;11.576;2023-08-30T06:02:29;12.97;;;11.87;;
26034;SDS011;13809;48.632;11.576;2023-08-30T06:07:32;13.30;;;12.30;;
26034;SDS011;13809;48.632;11.576;2023-08-30T06:12:36;13.00;;;12.10;;
26034;SDS011;13809;48.632;11.576;2023-08-30T06:17:41;12.40;;;11.50;;
26034;SDS011;13809;48.632;11.576;2023-08-30T06:22:45;12.47;;;11.57;;
26034;SDS011;13809;48.632;11.576;2023-08-30T06:27:54;12.23;;;11.33;;
26034;SDS011;13809;48.632;11.576;2023-08-30T06:33:01;13.63;;;12.63;;
26034;SDS011;13809;48.632;11.576;2023-08-30T06:38:04;12.97;;;12.07;;
26034;SDS011;13809;48.632;11.576;2023-08-30T06:43:08;12.23;;;11.23;;
26034;SDS011;13809;48.632;11.576;2023-08-30T06:48:13;13.50;;;12.50;;
26034;SDS011;13809;48.632;11.576;2023-08-30T06:53:16;13.43;;;12.33;;
26034;SDS011;13809;48.632;11.576;2023-08-30T06:58:19;12.93;;;11.93;;
26034;SDS011;13809;48.632;11.576;2023-08-30T07:03:24;13.33;;;12.10;;
26034;SDS011;13809;48.632;11.576;2023-08-30T07:08:27;12.60;;;11.47;;
26034;SDS011;13809;48.632;11.576;2023-08-30T07:13:30;13.10;;;12.03;;
26034;SDS011;13809;48.632;11.576;2023-08-30T07:18:34;12.60;;;11.70;;
26034;SDS011;13809;48.632;11.576;2023-08-30T07:23:38;12.90;;;11.90;;
26034;SDS011;13809;48.632;11.576;2023-08-30T07:28:41;12.40;;;11.50;;
26034;SDS011;13809;48.632;11.576;2023-08-30T07:33:46;12.17;;;11.37;;
26034;SDS011;13809;48.632;11.576;2023-08-30T07:38:49;12.33;;;11.43;;
26034;SDS011;13809;48.632;11.576;2023-08-30T07:43:52;13.43;;;12.27;;
26034;SDS011;13809;48.632;11.576;2023-08-30T07:48:57;12.23;;;11.33;;
26034;SDS011;13809;48.632;11.576;2023-08-30T07:54:01;13.17;;;12.17;;
26034;SDS011;13809;48.632;11.576;2023-08-30T07:59:06;12.90;;;11.90;;
26034;SDS011;13809;48.632;11.576;2023-08-30T08:04:10;12.63;;;11.73;;
26034;SDS011;13809;48.632;11.576;2023-08-30T08:09:14;12.70;;;11.80;;
26034;SDS011;13809;48.632;11.576;2023-08-30T08:14:17;10.93;;;10.10;;
26034;SDS011;13809;48.632;11.576;2023-08-30T08:19:22;11.63;;;10.83;;
26034;SDS011;13809;48.632;11.576;2023-08-30T08:24:26;11.20;;;10.40;;
26034;SDS011;13809;48.632;11.576;2023-08-30T08:29:30;11.13;;;10.33;;
26034;SDS011;13809;48.632;11.576;2023-08-30T08:34:35;10.87;;;10.07;;
26034;SDS011;13809;48.632;11.576;2023-08-30T08:39:38;11.50;;;10.70;;
26034;SDS011;13809;48.632;11.576;2023-08-30T08:44:41;11.83;;;11.03;;
26034;SDS011;13809;48.632;11.576;2023-08-30T08:49:47;11.57;;;10.67;;
26034;SDS011;13809;48.632;11.576;2023-08-30T08:54:51;11.80;;;10.90;;
26034;SDS011;13809;48.632;11.576;2023-08-30T08:59:57;10.60;;;9.80;;
26034;SDS011;13809;48.632;11.576;2023-08-30T09:05:01;10.97;;;10.20;;
26034;SDS011;13809;48.632;11.576;2023-08-30T09:10:06;10.03;;;9.33;;
26034;SDS011;13809;48.632;11.576;2023-08-30T09:15:10;9.73;;;9.03;;
26034;SDS011;13809;48.632;11.576;2023-08-30T09:20:15;9.17;;;8.57;;
26034;SDS011;13809;48.632;11.576;2023-08-30T09:25:23;10.07;;;9.27;;
26034;SDS011;13809;48.632;11.576;2023-08-30T09:30:27;8.97;;;8.27;;
26034;SDS011;13809;48.632;11.576;2023-08-30T09:35:32;8.50;;;7.90;;
26034;SDS011;13809;48.632;11.576;2023-08-30T09:40:46;7.70;;;7.20;;
26034;SDS011;13809;48.632;11.576;2023-08-30T09:45:49;7.10;;;6.63;;
26034;SDS011;13809;48.632;11.576;2023-08-30T09:50:54;6.33;;;5.83;;
26034;SDS011;13809;48.632;11.576;2023-08-30T09:56:01;6.60;;;6.10;;
26034;SDS011;13809;48.632;11.576;2023-08-30T10:01:06;6.83;;;6.37;;
26034;SDS011;13809;48.632;11.576;2023-08-30T10:06:11;6.47;;;5.97;;
26034;SDS011;13809;48.632;11.576;2023-08-30T10:11:14;6.07;;;5.67;;
26034;SDS011;13809;48.632;11.576;2023-08-30T10:16:19;4.90;;;4.60;;
26034;SDS011;13809;48.632;11.576;2023-08-30T10:21:26;5.03;;;4.73;;
26034;SDS011;13809;48.632;11.576;2023-08-30T10:26:31;5.73;;;5.33;;
26034;SDS011;13809;48.632;11.576;2023-08-30T10:31:37;5.50;;;5.10;;
26034;SDS011;13809;48.632;11.576;2023-08-30T10:36:42;5.23;;;4.83;;
26034;SDS011;13809;48.632;11.576;2023-08-30T10:41:55;6.10;;;5.63;;
26034;SDS011;13809;48.632;11.576;2023-08-30T10:46:59;4.70;;;4.40;;
26034;SDS011;13809;48.632;11.576;2023-08-30T10:52:07;4.30;;;3.90;;
26034;SDS011;13809;48.632;11.576;2023-08-30T10:57:15;3.60;;;3.30;;
26034;SDS011;13809;48.632;11.576;2023-08-30T11:02:23;4.00;;;3.80;;
26034;SDS011;13809;48.632;11.576;2023-08-30T11:07:29;4.60;;;4.30;;
26034;SDS011;13809;48.632;11.576;2023-08-30T11:12:32;4.10;;;3.80;;
26034;SDS011;13809;48.632;11.576;2023-08-30T11:17:36;3.50;;;3.30;;
26034;SDS011;13809;48.632;11.576;2023-08-30T11:22:42;4.00;;;3.80;;
26034;SDS011;13809;48.632;11.576;2023-08-30T11:27:46;4.30;;;4.00;;
26034;SDS011;13809;48.632;11.576;2023-08-30T11:32:49;4.00;;;3.70;;
26034;SDS011;13809;48.632;11.576;2023-08-30T11:37:55;3.90;;;3.70;;
26034;SDS011;13809;48.632;11.576;2023-08-30T11:42:59;4.23;;;4.03;;
26034;SDS011;13809;48.632;11.576;2023-08-30T11:48:07;4.10;;;3.53;;
26034;SDS011;13809;48.632;11.576;2023-08-30T11:53:12;3.23;;;3.03;;
26034;SDS011;13809;48.632;11.576;2023-08-30T11:58:15;3.50;;;3.30;;
26034;SDS011;13809;48.632;11.576;2023-08-30T12:03:21;2.77;;;2.57;;
26034;SDS011;13809;48.632;11.576;2023-08-30T12:08:26;3.00;;;2.80;;
26034;SDS011;13809;48.632;11.576;2023-08-30T12:13:31;2.70;;;2.60;;
26034;SDS011;13809;48.632;11.576;2023-08-30T12:18:35;2.60;;;2.50;;
26034;SDS011;13809;48.632;11.576;2023-08-30T12:23:40;3.90;;;3.70;;
26034;SDS011;13809;48.632;11.576;2023-08-30T12:28:43;3.60;;;3.40;;
26034;SDS011;13809;48.632;11.576;2023-08-30T12:33:46;3.80;;;3.33;;
26034;SDS011;13809;48.632;11.576;2023-08-30T12:38:51;4.30;;;4.00;;
26034;SDS011;13809;48.632;11.576;2023-08-30T12:43:54;3.80;;;3.60;;
26034;SDS011;13809;48.632;11.576;2023-08-30T12:48:58;3.30;;;3.10;;
26034;SDS011;13809;48.632;11.576;2023-08-30T12:54:02;3.20;;;3.00;;
26034;SDS011;13809;48.632;11.576;2023-08-30T12:59:06;3.20;;;3.00;;
26034;SDS011;13809;48.632;11.576;2023-08-30T13:04:09;2.83;;;2.70;;
26034;SDS011;13809;48.632;11.576;2023-08-30T13:09:14;2.60;;;2.40;;
26034;SDS011;13809;48.632;11.576;2023-08-30T13:14:17;2.67;;;2.57;;
26034;SDS011;13809;48.632;11.576;2023-08-30T13:19:20;2.67;;;2.47;;
26034;SDS011;13809;48.632;11.576;2023-08-30T13:24:25;2.97;;;2.53;;
26034;SDS011;13809;48.632;11.576;2023-08-30T13:29:28;2.73;;;2.53;;
26034;SDS011;13809;48.632;11.576;2023-08-30T13:34:31;2.60;;;2.40;;
26034;SDS011;13809;48.632;11.576;2023-08-30T13:39:36;2.97;;;2.77;;
26034;SDS011;13809;48.632;11.576;2023-08-30T13:44:39;2.90;;;2.70;;
26034;SDS011;13809;48.632;11.576;2023-08-30T13:49:44;3.40;;;3.13;;
26034;SDS011;13809;48.632;11.576;2023-08-30T13:54:49;2.53;;;2.43;;
26034;SDS011;13809;48.632;11.576;2023-08-30T13:59:53;3.10;;;2.80;;
26034;SDS011;13809;48.632;11.576;2023-08-30T14:04:56;2.57;;;2.37;;
26034;SDS011;13809;48.632;11.576;2023-08-30T14:10:01;2.77;;;2.57;;
26034;SDS011;13809;48.632;11.576;2023-08-30T14:15:04;2.30;;;2.20;;
26034;SDS011;13809;48.632;11.576;2023-08-30T14:20:08;2.43;;;2.20;;
26034;SDS011;13809;48.632;11.576;2023-08-30T14:25:14;2.40;;;2.20;;
26034;SDS011;13809;48.632;11.576;2023-08-30T14:30:18;2.20;;;2.00;;
26034;SDS011;13809;48.632;11.576;2023-08-30T14:35:21;2.60;;;2.40;;
26034;SDS011;13809;48.632;11.576;2023-08-30T14:40:27;2.23;;;2.13;;
26034;SDS011;13809;48.632;11.576;2023-08-30T14:45:30;2.30;;;2.20;;
26034;SDS011;13809;48.632;11.576;2023-08-30T14:50:33;2.13;;;1.93;;
26034;SDS011;13809;48.632;11.576;2023-08-30T14:55:38;2.40;;;2.20;;
26034;SDS011;13809;48.632;11.576;2023-08-30T15:00:41;2.50;;;2.30;;
26034;SDS011;13809;48.632;11.576;2023-08-30T15:05:51;2.63;;;2.43;;
26034;SDS011;13809;48.632;11.576;2023-08-30T15:10:57;2.50;;;2.30;;
26034;SDS011;13809;48.632;11.576;2023-08-30T15:16:01;2.50;;;2.40;;
26034;SDS011;13809;48.632;11.576;2023-08-30T15:21:05;2.87;;;2.10;;
26034;SDS011;13809;48.632;11.576;2023-08-30T15:26:09;2.07;;;1.70;;
26034;SDS011;13809;48.632;11.576;2023-08-30T15:31:17;2.53;;;2.13;;
26034;SDS011;13809;48.632;11.576;2023-08-30T15:36:21;2.30;;;2.10;;
26034;SDS011;13809;48.632;11.576;2023-08-30T15:41:26;2.57;;;2.33;;
26034;SDS011;13809;48.632;11.576;2023-08-30T15:46:29;2.37;;;2.17;;
26034;SDS011;13809;48.632;11.576;2023-08-30T15:51:34;2.63;;;2.43;;
26034;SDS011;13809;48.632;11.576;2023-08-30T15:56:39;3.77;;;2.47;;
26034;SDS011;13809;48.632;11.576;2023-08-30T16:01:42;2.33;;;2.20;;
26034;SDS011;13809;48.632;11.576;2023-08-30T16:06:45;2.50;;;2.30;;
26034;SDS011;13809;48.632;11.576;2023-08-30T16:11:50;2.47;;;2.37;;
26034;SDS011;13809;48.632;11.576;2023-08-30T16:16:53;2.30;;;2.20;;
26034;SDS011;13809;48.632;11.576;2023-08-30T16:21:56;3.70;;;3.37;;
26034;SDS011;13809;48.632;11.576;2023-08-30T16:27:01;2.60;;;2.40;;
26034;SDS011;13809;48.632;11.576;2023-08-30T16:32:05;2.43;;;2.30;;
26034;SDS011;13809;48.632;11.576;2023-08-30T16:37:08;2.53;;;2.43;;
26034;SDS011;13809;48.632;11.576;2023-08-30T16:42:13;2.30;;;2.20;;
26034;SDS011;13809;48.632;11.576;2023-08-30T16:47:16;2.10;;;2.00;;
26034;SDS011;13809;48.632;11.576;2023-08-30T16:52:19;2.53;;;2.33;;
26034;SDS011;13809;48.632;11.576;2023-08-30T16:57:24;2.40;;;2.30;;
26034;SDS011;13809;48.632;11.576;2023-08-30T17:02:30;2.17;;;2.00;;
26034;SDS011;13809;48.632;11.576;2023-08-30T17:07:35;2.20;;;2.10;;
26034;SDS011;13809;48.632;11.576;2023-08-30T17:12:40;2.50;;;2.30;;
26034;SDS011;13809;48.632;11.576;2023-08-30T17:17:44;2.37;;;2.27;;
26034;SDS011;13809;48.632;11.576;2023-08-30T17:22:48;2.90;;;2.70;;
26034;SDS011;13809;48.632;11.576;2023-08-30T17:27:53;2.50;;;2.30;;
26034;SDS011;13809;48.632;11.576;2023-08-30T17:32:56;2.60;;;2.33;;
26034;SDS011;13809;48.632;11.576;2023-08-30T17:38:00;2.47;;;2.27;;
26034;SDS011;13809;48.632;11.576;2023-08-30T17:43:05;4.30;;;2.40;;
26034;SDS011;13809;48.632;11.576;2023-08-30T17:48:09;2.63;;;2.43;;
26034;SDS011;13809;48.632;11.576;2023-08-30T17:53:12;2.60;;;2.40;;
26034;SDS011;13809;48.632;11.576;2023-08-30T17:58:18;2.43;;;2.23;;
26034;SDS011;13809;48.632;11.576;2023-08-30T18:03:21;3.23;;;2.93;;
26034;SDS011;13809;48.632;11.576;2023-08-30T18:08:25;3.10;;;2.60;;
26034;SDS011;13809;48.632;11.576;2023-08-30T18:13:30;2.67;;;2.47;;
26034;SDS011;13809;48.632;11.576;2023-08-30T18:18:34;2.87;;;2.67;;
26034;SDS011;13809;48.632;11.576;2023-08-30T18:23:39;2.90;;;2.70;;
26034;SDS011;13809;48.632;11.576;2023-08-30T18:28:45;3.00;;;2.80;;
26034;SDS011;13809;48.632;11.576;2023-08-30T18:33:49;3.07;;;2.87;;
26034;SDS011;13809;48.632;11.576;2023-08-30T18:38:52;2.53;;;2.43;;
26034;SDS011;13809;48.632;11.576;2023-08-30T18:43:57;2.30;;;2.00;;
26034;SDS011;13809;48.632;11.576;2023-08-30T18:49:00;2.23;;;2.03;;
26034;SDS011;13809;48.632;11.576;2023-08-30T18:54:05;1.80;;;1.70;;
26034;SDS011;13809;48.632;11.576;2023-08-30T18:59:12;1.70;;;1.60;;
26034;SDS011;13809;48.632;11.576;2023-08-30T19:04:16;2.00;;;1.90;;
26034;SDS011;13809;48.632;11.576;2023-08-30T19:09:19;2.57;;;1.73;;
26034;SDS011;13809;48.632;11.576;2023-08-30T19:14:24;1.33;;;1.33;;
26034;SDS011;13809;48.632;11.576;2023-08-30T19:19:27;1.83;;;1.57;;
26034;SDS011;13809;48.632;11.576;2023-08-30T19:24:32;1.70;;;1.60;;
26034;SDS011;13809;48.632;11.576;2023-08-30T19:29:39;1.87;;;1.77;;
26034;SDS011;13809;48.632;11.576;2023-08-30T19:34:45;3.03;;;1.70;;
26034;SDS011;13809;48.632;11.576;2023-08-30T19:39:49;2.17;;;2.07;;
26034;SDS011;13809;48.632;11.576;2023-08-30T19:44:54;1.97;;;1.87;;
26034;SDS011;13809;48.632;11.576;2023-08-30T19:49:59;1.90;;;1.80;;
26034;SDS011;13809;48.632;11.576;2023-08-30T19:55:03;2.00;;;1.90;;
26034;SDS011;13809;48.632;11.576;2023-08-30T20:00:08;2.00;;;1.90;;
26034;SDS011;13809;48.632;11.576;2023-08-30T20:05:13;1.90;;;1.80;;
26034;SDS011;13809;48.632;11.576;2023-08-30T20:10:17;2.67;;;1.87;;
26034;SDS011;13809;48.632;11.576;2023-08-30T20:15:21;2.10;;;2.00;;
26034;SDS011;13809;48.632;11.576;2023-08-30T20:20:32;2.20;;;2.00;;
26034;SDS011;13809;48.632;11.576;2023-08-30T20:25:37;2.67;;;2.23;;
26034;SDS011;13809;48.632;11.576;2023-08-30T20:30:46;2.20;;;2.10;;
26034;SDS011;13809;48.632;11.576;2023-08-30T20:35:49;2.13;;;2.03;;
26034;SDS011;13809;48.632;11.576;2023-08-30T20:40:53;2.13;;;2.03;;
26034;SDS011;13809;48.632;11.576;2023-08-30T20:45:57;2.70;;;2.50;;
26034;SDS011;13809;48.632;11.576;2023-08-30T20:51:01;3.60;;;2.40;;
26034;SDS011;13809;48.632;11.576;2023-08-30T20:56:06;2.63;;;2.30;;
26034;SDS011;13809;48.632;11.576;2023-08-30T21:01:11;2.63;;;2.43;;
26034;SDS011;13809;48.632;11.576;2023-08-30T21:06:15;2.53;;;2.33;;
26034;SDS011;13809;48.632;11.576;2023-08-30T21:11:19;2.20;;;2.10;;
26034;SDS011;13809;48.632;11.576;2023-08-30T21:16:23;2.20;;;2.10;;
26034;SDS011;13809;48.632;11.576;2023-08-30T21:21:27;2.23;;;2.13;;
26034;SDS011;13809;48.632;11.576;2023-08-30T21:26:30;2.33;;;2.13;;
26034;SDS011;13809;48.632;11.576;2023-08-30T21:31:35;2.10;;;2.00;;
26034;SDS011;13809;48.632;11.576;2023-08-30T21:36:38;2.50;;;2.40;;
26034;SDS011;13809;48.632;11.576;2023-08-30T21:41:41;2.50;;;2.30;;
26034;SDS011;13809;48.632;11.576;2023-08-30T21:46:46;2.53;;;2.40;;
26034;SDS011;13809;48.632;11.576;2023-08-30T21:51:49;2.80;;;2.60;;
26034;SDS011;13809;48.632;11.576;2023-08-30T21:56:52;2.60;;;2.40;;
26034;SDS011;13809;48.632;11.576;2023-08-30T22:01:57;2.70;;;2.50;;
26034;SDS011;13809;48.632;11.576;2023-08-30T22:07:01;2.67;;;2.47;;
26034;SDS011;13809;48.632;11.576;2023-08-30T22:12:07;2.63;;;2.37;;
26034;SDS011;13809;48.632;11.576;2023-08-30T22:17:12;2.90;;;2.70;;
26034;SDS011;13809;48.632;11.576;2023-08-30T22:22:15;2.60;;;2.40;;
26034;SDS011;13809;48.632;11.576;2023-08-30T22:27:19;2.87;;;2.60;;
26034;SDS011;13809;48.632;11.576;2023-08-30T22:32:24;2.53;;;2.23;;
26034;SDS011;13809;48.632;11.576;2023-08-30T22:37:28;2.60;;;2.50;;
26034;SDS011;13809;48.632;11.576;2023-08-30T22:42:31;2.83;;;2.70;;
26034;SDS011;13809;48.632;11.576;2023-08-30T22:47:36;3.00;;;2.70;;
26034;SDS011;13809;48.632;11.576;2023-08-30T22:52:39;3.20;;;3.00;;
26034;SDS011;13809;48.632;11.576;2023-08-30T22:57:42;4.27;;;2.90;;
26034;SDS011;13809;48.632;11.576;2023-08-30T23:02:47;3.07;;;2.87;;
26034;SDS011;13809;48.632;11.576;2023-08-30T23:07:52;3.40;;;3.20;;
26034;SDS011;13809;48.632;11.576;2023-08-30T23:12:56;3.23;;;3.03;;
26034;SDS011;13809;48.632;11.576;2023-08-30T23:18:00;3.13;;;2.93;;
26034;SDS011;13809;48.632;11.576;2023-08-30T23:23:05;3.17;;;2.97;;
26034;SDS011;13809;48.632;11.576;2023-08-30T23:28:10;2.93;;;2.73;;
26034;SDS011;13809;48.632;11.576;2023-08-30T23:33:16;3.27;;;3.07;;
26034;SDS011;13809;48.632;11.576;2023-08-30T23:38:19;3.13;;;2.83;;
26034;SDS011;13809;48.632;11.576;2023-08-30T23:43:23;3.20;;;3.00;;
26034;SDS011;13809;48.632;11.576;2023-08-30T23:48:27;2.90;;;2.70;;
26034;SDS011;13809;48.632;11.576;2023-08-30T23:53:31;2.80;;;2.60;;
26034;SDS011;13809;48.632;11.576;2023-08-30T23:58:34;3.30;;;3.00;;
